メインページ
METAR-TAF:

METAR-TAF

空港 :

ジュネーヴ, スイス

ジュネーヴ空港

緯度: 46-15N, 経度: 006-08E, 海抜: 420m

現時点の気象観測

当レポートは38分前の05:20(UTC)に作成
変向風 1kt
気温 11°C
湿度 87%
気圧 1023 hPa
視程10km以上
高度5000ftの雲はほとんどない
高度7000ftの雲は散在している

METAR: LSGG 200520Z VRB01KT 9999 FEW050 SCT070 11/09 Q1023 NOSIG

時間: 07:58 (05:58 UTC)

予報

当レポートは33分前の05:25(UTC)に作成
予報は20日の 06時(UTC)から 21日の 12時(UTC)まで有効
変向風 3kt
視程10km以上
高度6000ftの雲はほとんどない
20日の 08時(UTC)から 20日の 10時(UTC)まで徐々に
北東の風 10kt
20日の 20時(UTC)から 20日の 23時(UTC)まで徐々に
変向風 3kt
視程10km以上
1,500メートル以下は雲なし、積乱雲なし

TAF: LSGG 200525Z 2006/2112 VRB03KT 9999 FEW060 TX24/2015Z TN13/2006Z TN10/2104Z BECMG 2008/2010 05010KT BECMG 2020/2023 VRB03KT CAVOK

4,000以上の空港の気象観測と天気予報(METAR報とTAF報)

利用可能な観測所は地図上に黄色い丸と赤い丸で示す。

丸の上にカーソルを重ねると観測所名を参照できる。

次にクリックすると気象観測と天気予報を参照できる。

マップの切り替え:黒色「×」印の緑ボタンをクリックして拡大、「-」印の緑ボタンをクリックして縮小、緑色の三角印をクリックして隣りの地図に切り替え


METAR-TAF: